createdAt,value
2023-09-23T00:01:34.128Z,152323.47
2023-09-23T00:06:36.202Z,152266.44
2023-09-23T00:11:38.418Z,152315.66
2023-09-23T00:16:40.346Z,152267.78
2023-09-23T00:21:42.133Z,152249.63
2023-09-23T00:26:44.939Z,152225.03
2023-09-23T00:31:46.797Z,152223.75
2023-09-23T00:36:48.637Z,152226.34
2023-09-23T00:41:50.470Z,152291.09
2023-09-23T00:46:52.312Z,152311.75
2023-09-23T00:51:54.968Z,152292.38
2023-09-23T00:56:59.586Z,152212.09
2023-09-23T01:02:02.305Z,152170.66
2023-09-23T01:07:04.060Z,152118.88
2023-09-23T01:12:09.014Z,152071.03
2023-09-23T01:17:11.512Z,152063.25
2023-09-23T01:22:13.431Z,152100.78
2023-09-23T01:27:19.376Z,152059.38
2023-09-23T01:32:36.262Z,151998.53
2023-09-23T01:37:39.168Z,152017.97
2023-09-23T01:42:40.880Z,152059.38
2023-09-23T01:47:43.140Z,151957.13
2023-09-23T01:52:46.478Z,151976.53
2023-09-23T01:57:51.230Z,151951.91
2023-09-23T02:02:57.209Z,151970.06
2023-09-23T02:08:00.311Z,151944.19
2023-09-23T02:13:02.031Z,151957.13
2023-09-23T02:18:05.563Z,151944.19
2023-09-23T02:23:07.499Z,151920.91
2023-09-23T02:28:10.871Z,151891.16
2023-09-23T02:33:13.539Z,151854.94
2023-09-23T02:38:15.413Z,151848.47
2023-09-23T02:43:21.550Z,151873.03
2023-09-23T02:48:23.516Z,151817.44
2023-09-23T02:53:25.512Z,151847.19
2023-09-23T02:58:27.228Z,151809.69
2023-09-23T03:03:29.230Z,151755.38
2023-09-23T03:08:31.967Z,151767.03
2023-09-23T03:13:35.849Z,151732.13
2023-09-23T03:18:43.348Z,151759.25
2023-09-23T03:23:46.148Z,151748.91
2023-09-23T03:28:48.276Z,151737.28
2023-09-23T03:33:50.255Z,151773.50
2023-09-23T03:38:52.865Z,151751.53
2023-09-23T03:43:54.814Z,151737.28
2023-09-23T03:48:56.784Z,151774.81
2023-09-23T03:53:59.100Z,151772.16
2023-09-23T03:59:02.098Z,151798.06
2023-09-23T04:04:08.880Z,151811.00
2023-09-23T04:09:14.610Z,151914.44
2023-09-23T04:14:16.361Z,151954.56
2023-09-23T04:19:18.064Z,151994.63
2023-09-23T04:24:19.794Z,151985.56
2023-09-23T04:29:21.756Z,151939.00
2023-09-23T04:34:25.351Z,151940.28
2023-09-23T04:39:27.088Z,151985.56
2023-09-23T04:44:28.760Z,151997.19
2023-09-23T04:49:30.528Z,152024.44
2023-09-23T04:54:32.285Z,152059.38
2023-09-23T04:59:34.031Z,151997.19
2023-09-23T05:04:35.756Z,151989.47
2023-09-23T05:09:38.484Z,151942.91
2023-09-23T05:14:43.987Z,151904.06
2023-09-23T05:19:49.228Z,151951.91
2023-09-23T05:24:57.842Z,152006.31
2023-09-23T05:29:59.714Z,152020.59
2023-09-23T05:35:02.047Z,151979.13
2023-09-23T05:40:24.448Z,152043.88
2023-09-23T05:45:26.787Z,152102.09
2023-09-23T05:50:28.995Z,152094.31
2023-09-23T05:55:32.452Z,152096.88
2023-09-23T06:00:34.977Z,152160.31
2023-09-23T06:05:36.982Z,152186.19
2023-09-23T06:10:40.146Z,152228.91
2023-09-23T06:15:41.931Z,152249.63
2023-09-23T06:20:43.881Z,152258.69
2023-09-23T06:25:53.603Z,152288.44
2023-09-23T06:30:55.347Z,152313.09
2023-09-23T06:36:01.804Z,152329.94
2023-09-23T06:41:06.044Z,152336.44
2023-09-23T06:46:08.368Z,152383.06
2023-09-23T06:51:10.337Z,152341.59
2023-09-23T06:56:12.075Z,152342.91
2023-09-23T07:01:14.061Z,152326.09
2023-09-23T07:06:15.864Z,152323.47
2023-09-23T07:11:18.204Z,152313.09
2023-09-23T07:16:20.197Z,152314.38
2023-09-23T07:21:21.981Z,152339.03
2023-09-23T07:26:23.774Z,152344.19
2023-09-23T07:31:25.508Z,152336.44
2023-09-23T07:36:27.247Z,152411.53
2023-09-23T07:41:29.016Z,152456.88
2023-09-23T07:46:31.146Z,152476.31
2023-09-23T07:51:32.836Z,152491.88
2023-09-23T07:56:34.581Z,152521.66
2023-09-23T08:01:36.443Z,152537.22
2023-09-23T08:06:39.395Z,152573.50
2023-09-23T08:11:41.258Z,152582.56
2023-09-23T08:16:43.056Z,152552.75
2023-09-23T08:21:46.881Z,152574.78
2023-09-23T08:26:49.020Z,152547.53
2023-09-23T08:31:52.036Z,152586.44
2023-09-23T08:36:53.970Z,152599.41
2023-09-23T08:41:58.482Z,152738.13
2023-09-23T08:47:00.433Z,152762.78
2023-09-23T08:52:04.073Z,152764.09
2023-09-23T08:57:07.074Z,152727.75
2023-09-23T09:02:08.958Z,152774.47
2023-09-23T09:07:10.723Z,152797.78
2023-09-23T09:12:12.563Z,152804.25
2023-09-23T09:17:16.098Z,152788.72
2023-09-23T09:22:20.791Z,152756.28
2023-09-23T09:27:23.068Z,152832.78
2023-09-23T09:32:32.615Z,152882.06
2023-09-23T09:37:36.660Z,152965.16
2023-09-23T09:42:41.225Z,153015.72
2023-09-23T09:47:46.601Z,152984.56
2023-09-23T09:52:48.513Z,152978.13
2023-09-23T09:57:51.953Z,153017.00
2023-09-23T10:03:14.447Z,153168.91
2023-09-23T10:08:26.228Z,153206.53
2023-09-23T10:13:32.686Z,153264.94
2023-09-23T10:18:37.156Z,153202.66
2023-09-23T10:23:42.368Z,153150.66
2023-09-23T10:28:46.863Z,153274.03
2023-09-23T10:33:48.784Z,153284.44
2023-09-23T10:38:51.174Z,153210.41
2023-09-23T10:43:55.234Z,153274.03
2023-09-23T10:48:57.466Z,153312.97
2023-09-23T10:54:00.659Z,153271.47
2023-09-23T10:59:05.702Z,153175.38
2023-09-23T11:04:07.921Z,153097.44
2023-09-23T11:09:09.898Z,153222.09
2023-09-23T11:14:15.804Z,153202.66
2023-09-23T11:19:18.759Z,153170.19
2023-09-23T11:24:20.537Z,153153.31
2023-09-23T11:29:22.675Z,153136.41
2023-09-23T11:34:24.751Z,153059.84
2023-09-23T11:39:26.793Z,153091.00
2023-09-23T11:44:30.673Z,153100.09
2023-09-23T11:49:32.760Z,153102.66
2023-09-23T11:54:35.019Z,153132.47
2023-09-23T11:59:37.416Z,153170.19
2023-09-23T12:04:39.609Z,153184.47
2023-09-23T12:09:41.795Z,153198.72
2023-09-23T12:14:46.594Z,153161.09
2023-09-23T12:19:48.722Z,153133.81
2023-09-23T12:24:51.078Z,153219.50
2023-09-23T12:29:52.809Z,153213.03
2023-09-23T12:34:54.656Z,153293.53
2023-09-23T12:39:59.046Z,153371.44
2023-09-23T12:45:02.336Z,153250.69
2023-09-23T12:50:08.398Z,153205.25
2023-09-23T12:55:10.437Z,153254.56
2023-09-23T13:00:12.819Z,153364.94
2023-09-23T13:05:18.038Z,153433.81
2023-09-23T13:10:20.054Z,153416.94
2023-09-23T13:15:22.751Z,153333.75
2023-09-23T13:20:24.656Z,153342.84
2023-09-23T13:25:26.727Z,153374.03
2023-09-23T13:30:29.096Z,153410.44
2023-09-23T13:35:30.907Z,153409.13
2023-09-23T13:40:34.581Z,153401.34
2023-09-23T13:45:37.868Z,153402.63
2023-09-23T13:50:40.695Z,153435.09
2023-09-23T13:55:42.520Z,153409.13
2023-09-23T14:00:44.473Z,153375.31
2023-09-23T14:05:46.442Z,153333.75
2023-09-23T14:10:48.652Z,153306.50
2023-09-23T14:15:50.429Z,153302.63
2023-09-23T14:20:52.399Z,153283.13
2023-09-23T14:25:54.730Z,153275.34
2023-09-23T14:30:57.788Z,153320.78
2023-09-23T14:36:01.354Z,153248.09
2023-09-23T14:41:03.235Z,153250.69
2023-09-23T14:46:05.656Z,153220.81
2023-09-23T14:51:07.798Z,153211.69
2023-09-23T14:56:09.932Z,153189.69
2023-09-23T15:01:11.677Z,153258.47
2023-09-23T15:06:13.822Z,153275.34
2023-09-23T15:11:17.220Z,153246.81
2023-09-23T15:16:19.421Z,153242.88
2023-09-23T15:21:22.612Z,153203.94
2023-09-23T15:26:25.261Z,153211.69
2023-09-23T15:31:27.144Z,153162.41
2023-09-23T15:36:28.947Z,153209.13
2023-09-23T15:41:31.071Z,153205.25
2023-09-23T15:46:33.015Z,153201.38
2023-09-23T15:51:35.070Z,153197.44
2023-09-23T15:56:40.850Z,153127.31
2023-09-23T16:01:42.975Z,153057.25
2023-09-23T16:06:44.717Z,153001.47
2023-09-23T16:11:46.534Z,153089.69
2023-09-23T16:16:49.037Z,153098.75
2023-09-23T16:21:52.648Z,153015.72
2023-09-23T16:26:54.432Z,153006.63
2023-09-23T16:31:56.185Z,153029.97
2023-09-23T16:36:58.004Z,153101.38
2023-09-23T16:41:59.735Z,152992.38
2023-09-23T16:47:01.627Z,152950.84
2023-09-23T16:52:04.419Z,152934.00
2023-09-23T16:57:06.229Z,152861.31
2023-09-23T17:02:09.516Z,152860.00
2023-09-23T17:07:14.482Z,152861.31
2023-09-23T17:12:16.384Z,152806.88
2023-09-23T17:17:19.003Z,152786.13
2023-09-23T17:22:20.700Z,152771.81
2023-09-23T17:27:22.402Z,152726.44
2023-09-23T17:32:24.302Z,152712.22
2023-09-23T17:37:26.260Z,152651.31
2023-09-23T17:42:28.286Z,152603.28
2023-09-23T17:47:30.256Z,152603.28
2023-09-23T17:52:32.139Z,152555.34
2023-09-23T17:57:34.049Z,152510.00
2023-09-23T18:02:35.982Z,152475.03
2023-09-23T18:07:39.220Z,152469.84
2023-09-23T18:12:41.858Z,152464.66
2023-09-23T18:17:43.969Z,152379.16
2023-09-23T18:22:46.497Z,152376.56
2023-09-23T18:27:48.279Z,152396.00
2023-09-23T18:32:50.906Z,152381.78
2023-09-23T18:37:53.814Z,152341.59
2023-09-23T18:42:56.047Z,152336.44
2023-09-23T18:48:12.731Z,152289.78
2023-09-23T18:53:19.831Z,152253.50
2023-09-23T18:58:21.985Z,152221.13
2023-09-23T19:03:24.092Z,152243.13
2023-09-23T19:08:26.292Z,152231.50
2023-09-23T19:13:31.155Z,152208.19
2023-09-23T19:18:32.950Z,152183.59
2023-09-23T19:23:34.914Z,152179.75
2023-09-23T19:28:37.293Z,152112.44
2023-09-23T19:33:40.935Z,152146.09
2023-09-23T19:38:42.839Z,152162.91
2023-09-23T19:43:44.840Z,152209.47
2023-09-23T19:48:47.767Z,152199.13
2023-09-23T19:53:49.994Z,152206.91
2023-09-23T19:58:52.158Z,152213.41
2023-09-23T20:03:54.040Z,152183.59
2023-09-23T20:08:55.941Z,152173.25
2023-09-23T20:13:57.984Z,152146.09
2023-09-23T20:19:00.400Z,152117.59
2023-09-23T20:24:04.141Z,152056.78
2023-09-23T20:29:06.091Z,152058.09
2023-09-23T20:34:08.192Z,152063.25
2023-09-23T20:39:10.248Z,152038.66
2023-09-23T20:44:12.250Z,151984.28
2023-09-23T20:49:15.327Z,151980.41
2023-09-23T20:54:16.972Z,151915.72
2023-09-23T20:59:18.722Z,151853.66
2023-09-23T21:04:20.564Z,151811.00
2023-09-23T21:09:22.562Z,151801.94
2023-09-23T21:14:26.277Z,151812.28
2023-09-23T21:19:29.158Z,151764.44
2023-09-23T21:24:30.911Z,151732.13
2023-09-23T21:29:32.677Z,151703.66
2023-09-23T21:34:34.603Z,151692.03
2023-09-23T21:39:36.288Z,151668.78
2023-09-23T21:44:38.241Z,151658.44
2023-09-23T21:49:39.936Z,151650.72
2023-09-23T21:54:41.770Z,151623.50
2023-09-23T21:59:44.293Z,151610.56
2023-09-23T22:04:47.199Z,151655.84
2023-09-23T22:09:49.344Z,151698.50
2023-09-23T22:14:51.077Z,151764.44
2023-09-23T22:19:54.038Z,151715.28
2023-09-23T22:24:56.453Z,151661.06
2023-09-23T22:30:01.386Z,151611.88
2023-09-23T22:35:04.075Z,151668.78
2023-09-23T22:40:10.643Z,151750.19
2023-09-23T22:45:23.570Z,151730.84
2023-09-23T22:50:30.019Z,151666.19
2023-09-23T22:55:33.923Z,151663.63
2023-09-23T23:00:37.369Z,151693.31
2023-09-23T23:05:39.692Z,151632.53
2023-09-23T23:10:42.042Z,151583.47
2023-09-23T23:15:44.119Z,151553.72
2023-09-23T23:20:48.091Z,151524.00
2023-09-23T23:25:50.102Z,151487.84
2023-09-23T23:35:58.494Z,151539.53
2023-09-23T23:41:02.739Z,151504.66
2023-09-23T23:46:05.173Z,151462.00
2023-09-23T23:51:10.548Z,151424.53
2023-09-23T23:56:14.079Z,151407.75
